sensor_id;sensor_type;location;lat;lon;timestamp;pressure;altitude;pressure_sealevel;temperature;humidity
10606;BME280;5350;42.698;23.148;2023-05-07T00:01:30;93869.94;;;9.77;100.00
10606;BME280;5350;42.698;23.148;2023-05-07T00:03:56;93870.06;;;9.67;100.00
10606;BME280;5350;42.698;23.148;2023-05-07T00:06:23;93873.19;;;9.69;100.00
10606;BME280;5350;42.698;23.148;2023-05-07T00:08:51;93863.91;;;9.77;100.00
10606;BME280;5350;42.698;23.148;2023-05-07T00:11:18;93870.63;;;9.88;100.00
10606;BME280;5350;42.698;23.148;2023-05-07T00:13:45;93865.69;;;9.81;100.00
10606;BME280;5350;42.698;23.148;2023-05-07T00:16:11;93867.19;;;9.92;100.00
10606;BME280;5350;42.698;23.148;2023-05-07T00:18:39;93865.66;;;9.86;100.00
10606;BME280;5350;42.698;23.148;2023-05-07T00:21:06;93860.09;;;9.64;100.00
10606;BME280;5350;42.698;23.148;2023-05-07T00:23:33;93863.19;;;9.71;100.00
10606;BME280;5350;42.698;23.148;2023-05-07T00:26:00;93872.25;;;9.55;100.00
10606;BME280;5350;42.698;23.148;2023-05-07T00:28:26;93866.69;;;9.61;100.00
10606;BME280;5350;42.698;23.148;2023-05-07T00:30:53;93864.22;;;9.70;100.00
10606;BME280;5350;42.698;23.148;2023-05-07T00:33:20;93868.56;;;9.56;100.00
10606;BME280;5350;42.698;23.148;2023-05-07T00:35:48;93864.94;;;9.52;100.00
10606;BME280;5350;42.698;23.148;2023-05-07T00:38:15;93862.53;;;9.55;100.00
10606;BME280;5350;42.698;23.148;2023-05-07T00:40:42;93857.94;;;9.71;100.00
10606;BME280;5350;42.698;23.148;2023-05-07T00:43:09;93860.38;;;9.62;100.00
10606;BME280;5350;42.698;23.148;2023-05-07T00:45:35;93860.19;;;9.54;100.00
10606;BME280;5350;42.698;23.148;2023-05-07T00:48:03;93858.66;;;9.48;100.00
10606;BME280;5350;42.698;23.148;2023-05-07T00:50:31;93862.38;;;9.42;100.00
10606;BME280;5350;42.698;23.148;2023-05-07T00:53:00;93862.16;;;9.38;100.00
10606;BME280;5350;42.698;23.148;2023-05-07T00:55:27;93861.38;;;9.38;100.00
10606;BME280;5350;42.698;23.148;2023-05-07T00:57:55;93815.38;;;9.12;100.00
10606;BME280;5350;42.698;23.148;2023-05-07T01:00:22;93862.91;;;9.44;100.00
10606;BME280;5350;42.698;23.148;2023-05-07T01:02:50;93869.75;;;9.40;100.00
10606;BME280;5350;42.698;23.148;2023-05-07T01:05:18;93869.75;;;9.40;100.00
10606;BME280;5350;42.698;23.148;2023-05-07T01:07:47;93859.25;;;9.40;100.00
10606;BME280;5350;42.698;23.148;2023-05-07T01:10:17;93861.59;;;9.41;100.00
10606;BME280;5350;42.698;23.148;2023-05-07T01:12:44;93860.28;;;9.44;100.00
10606;BME280;5350;42.698;23.148;2023-05-07T01:15:12;93862.63;;;9.45;100.00
10606;BME280;5350;42.698;23.148;2023-05-07T01:17:40;93867.00;;;9.55;100.00
10606;BME280;5350;42.698;23.148;2023-05-07T01:20:08;93865.22;;;9.50;100.00
10606;BME280;5350;42.698;23.148;2023-05-07T01:22:38;93863.63;;;9.49;100.00
10606;BME280;5350;42.698;23.148;2023-05-07T01:25:06;93866.25;;;9.49;100.00
10606;BME280;5350;42.698;23.148;2023-05-07T01:27:33;93839.13;;;9.30;100.00
10606;BME280;5350;42.698;23.148;2023-05-07T01:30:00;93864.13;;;9.51;100.00
10606;BME280;5350;42.698;23.148;2023-05-07T01:32:32;93865.00;;;9.42;100.00
10606;BME280;5350;42.698;23.148;2023-05-07T01:35:03;93865.59;;;9.34;100.00
10606;BME280;5350;42.698;23.148;2023-05-07T01:37:31;93860.94;;;9.26;100.00
10606;BME280;5350;42.698;23.148;2023-05-07T01:40:01;93857.81;;;9.24;100.00
10606;BME280;5350;42.698;23.148;2023-05-07T01:42:28;93859.88;;;9.27;100.00
10606;BME280;5350;42.698;23.148;2023-05-07T01:44:55;93851.78;;;9.23;100.00
10606;BME280;5350;42.698;23.148;2023-05-07T01:47:23;93867.56;;;9.18;100.00
10606;BME280;5350;42.698;23.148;2023-05-07T01:49:50;93865.53;;;9.10;100.00
10606;BME280;5350;42.698;23.148;2023-05-07T01:52:17;93868.56;;;9.22;100.00
10606;BME280;5350;42.698;23.148;2023-05-07T01:54:43;93861.50;;;9.23;100.00
10606;BME280;5350;42.698;23.148;2023-05-07T01:57:11;93863.38;;;9.17;100.00
10606;BME280;5350;42.698;23.148;2023-05-07T01:59:38;93854.63;;;9.27;100.00
10606;BME280;5350;42.698;23.148;2023-05-07T02:02:05;93851.03;;;9.18;100.00
10606;BME280;5350;42.698;23.148;2023-05-07T02:04:32;93839.97;;;9.21;100.00
10606;BME280;5350;42.698;23.148;2023-05-07T02:06:58;93839.06;;;9.07;100.00
10606;BME280;5350;42.698;23.148;2023-05-07T02:09:25;93835.34;;;9.08;100.00
10606;BME280;5350;42.698;23.148;2023-05-07T02:11:52;93843.31;;;8.98;100.00
10606;BME280;5350;42.698;23.148;2023-05-07T02:14:20;93838.16;;;8.82;100.00
10606;BME280;5350;42.698;23.148;2023-05-07T02:16:47;93836.63;;;8.76;100.00
10606;BME280;5350;42.698;23.148;2023-05-07T02:19:13;93841.41;;;8.64;100.00
10606;BME280;5350;42.698;23.148;2023-05-07T02:21:40;93843.50;;;8.67;100.00
10606;BME280;5350;42.698;23.148;2023-05-07T02:24:07;93833.16;;;8.42;100.00
10606;BME280;5350;42.698;23.148;2023-05-07T02:26:34;93844.09;;;8.54;100.00
10606;BME280;5350;42.698;23.148;2023-05-07T02:29:00;93836.22;;;8.59;100.00
10606;BME280;5350;42.698;23.148;2023-05-07T02:31:28;93838.78;;;8.64;100.00
10606;BME280;5350;42.698;23.148;2023-05-07T02:33:55;93840.25;;;8.37;100.00
10606;BME280;5350;42.698;23.148;2023-05-07T02:36:22;93837.31;;;8.48;100.00
10606;BME280;5350;42.698;23.148;2023-05-07T02:38:48;93846.16;;;8.62;100.00
10606;BME280;5350;42.698;23.148;2023-05-07T02:41:15;93838.84;;;8.59;100.00
10606;BME280;5350;42.698;23.148;2023-05-07T02:43:42;93837.75;;;8.65;100.00
10606;BME280;5350;42.698;23.148;2023-05-07T02:46:09;93845.94;;;8.54;100.00
10606;BME280;5350;42.698;23.148;2023-05-07T02:48:37;93842.50;;;8.58;100.00
10606;BME280;5350;42.698;23.148;2023-05-07T02:51:04;93847.25;;;8.51;100.00
10606;BME280;5350;42.698;23.148;2023-05-07T02:53:32;93845.47;;;8.47;100.00
10606;BME280;5350;42.698;23.148;2023-05-07T02:56:00;93850.44;;;8.43;100.00
10606;BME280;5350;42.698;23.148;2023-05-07T02:58:28;93848.31;;;8.50;100.00
10606;BME280;5350;42.698;23.148;2023-05-07T03:00:54;93859.81;;;8.59;100.00
10606;BME280;5350;42.698;23.148;2023-05-07T03:03:21;93840.53;;;8.35;100.00
10606;BME280;5350;42.698;23.148;2023-05-07T03:05:49;93854.13;;;8.42;100.00
10606;BME280;5350;42.698;23.148;2023-05-07T03:08:16;93843.19;;;8.25;100.00
10606;BME280;5350;42.698;23.148;2023-05-07T03:10:43;93854.16;;;8.22;100.00
10606;BME280;5350;42.698;23.148;2023-05-07T03:13:10;93856.28;;;8.20;100.00
10606;BME280;5350;42.698;23.148;2023-05-07T03:15:37;93853.69;;;8.15;100.00
10606;BME280;5350;42.698;23.148;2023-05-07T03:18:03;93842.75;;;7.98;100.00
10606;BME280;5350;42.698;23.148;2023-05-07T03:20:30;93848.25;;;7.96;100.00
10606;BME280;5350;42.698;23.148;2023-05-07T03:22:58;93855.56;;;7.99;100.00
10606;BME280;5350;42.698;23.148;2023-05-07T03:25:25;93862.59;;;8.19;100.00
10606;BME280;5350;42.698;23.148;2023-05-07T03:27:52;93864.50;;;7.93;100.00
10606;BME280;5350;42.698;23.148;2023-05-07T03:30:18;93866.31;;;8.03;100.00
10606;BME280;5350;42.698;23.148;2023-05-07T03:32:45;93868.38;;;8.11;100.00
10606;BME280;5350;42.698;23.148;2023-05-07T03:35:12;93870.97;;;8.16;100.00
10606;BME280;5350;42.698;23.148;2023-05-07T03:37:39;93872.00;;;8.20;100.00
10606;BME280;5350;42.698;23.148;2023-05-07T03:40:08;93869.13;;;8.22;100.00
10606;BME280;5350;42.698;23.148;2023-05-07T03:42:37;93872.03;;;8.25;100.00
10606;BME280;5350;42.698;23.148;2023-05-07T03:45:04;93879.84;;;8.20;100.00
10606;BME280;5350;42.698;23.148;2023-05-07T03:47:31;93876.47;;;8.20;100.00
10606;BME280;5350;42.698;23.148;2023-05-07T03:49:58;93879.84;;;8.20;100.00
10606;BME280;5350;42.698;23.148;2023-05-07T03:52:25;93885.63;;;8.27;100.00
10606;BME280;5350;42.698;23.148;2023-05-07T03:54:52;93869.41;;;8.25;100.00
10606;BME280;5350;42.698;23.148;2023-05-07T03:57:20;93880.13;;;8.34;100.00
10606;BME280;5350;42.698;23.148;2023-05-07T03:59:47;93885.03;;;8.45;100.00
10606;BME280;5350;42.698;23.148;2023-05-07T04:02:14;93896.03;;;8.52;100.00
10606;BME280;5350;42.698;23.148;2023-05-07T04:04:40;93893.13;;;8.54;100.00
10606;BME280;5350;42.698;23.148;2023-05-07T04:07:07;93898.06;;;8.60;100.00
10606;BME280;5350;42.698;23.148;2023-05-07T04:09:34;93891.78;;;8.61;100.00
10606;BME280;5350;42.698;23.148;2023-05-07T04:12:00;93916.59;;;8.79;100.00
10606;BME280;5350;42.698;23.148;2023-05-07T04:14:29;93910.28;;;8.85;100.00
10606;BME280;5350;42.698;23.148;2023-05-07T04:16:57;93910.22;;;8.95;100.00
10606;BME280;5350;42.698;23.148;2023-05-07T04:19:24;93914.88;;;9.08;100.00
10606;BME280;5350;42.698;23.148;2023-05-07T04:21:51;93926.09;;;9.19;100.00
10606;BME280;5350;42.698;23.148;2023-05-07T04:24:17;93928.19;;;9.22;100.00
10606;BME280;5350;42.698;23.148;2023-05-07T04:26:44;93929.66;;;9.33;100.00
10606;BME280;5350;42.698;23.148;2023-05-07T04:29:11;93926.69;;;9.44;100.00
10606;BME280;5350;42.698;23.148;2023-05-07T04:31:39;93939.19;;;9.57;100.00
10606;BME280;5350;42.698;23.148;2023-05-07T04:34:06;93940.47;;;9.65;100.00
10606;BME280;5350;42.698;23.148;2023-05-07T04:36:32;93932.47;;;9.80;100.00
10606;BME280;5350;42.698;23.148;2023-05-07T04:38:59;93936.03;;;9.89;100.00
10606;BME280;5350;42.698;23.148;2023-05-07T04:41:26;93940.69;;;9.97;100.00
10606;BME280;5350;42.698;23.148;2023-05-07T04:43:53;93937.44;;;10.10;100.00
10606;BME280;5350;42.698;23.148;2023-05-07T04:46:19;93940.03;;;10.15;100.00
10606;BME280;5350;42.698;23.148;2023-05-07T04:48:48;93935.97;;;10.28;100.00
10606;BME280;5350;42.698;23.148;2023-05-07T04:51:14;93927.69;;;10.39;100.00
10606;BME280;5350;42.698;23.148;2023-05-07T04:53:41;93931.06;;;10.45;100.00
10606;BME280;5350;42.698;23.148;2023-05-07T04:56:08;93930.88;;;10.60;100.00
10606;BME280;5350;42.698;23.148;2023-05-07T04:58:35;93928.41;;;10.69;100.00
10606;BME280;5350;42.698;23.148;2023-05-07T05:01:01;93937.56;;;10.71;100.00
10606;BME280;5350;42.698;23.148;2023-05-07T05:03:28;93941.91;;;10.81;100.00
10606;BME280;5350;42.698;23.148;2023-05-07T05:05:56;93937.56;;;10.95;100.00
10606;BME280;5350;42.698;23.148;2023-05-07T05:08:24;93933.56;;;10.97;100.00
10606;BME280;5350;42.698;23.148;2023-05-07T05:10:51;93943.69;;;11.09;100.00
10606;BME280;5350;42.698;23.148;2023-05-07T05:13:18;93936.72;;;11.18;100.00
10606;BME280;5350;42.698;23.148;2023-05-07T05:15:45;93946.59;;;11.26;100.00
10606;BME280;5350;42.698;23.148;2023-05-07T05:18:12;93943.41;;;11.29;100.00
10606;BME280;5350;42.698;23.148;2023-05-07T05:20:39;93942.00;;;11.37;100.00
10606;BME280;5350;42.698;23.148;2023-05-07T05:23:07;93945.31;;;11.42;100.00
10606;BME280;5350;42.698;23.148;2023-05-07T05:25:34;93937.91;;;11.44;100.00
10606;BME280;5350;42.698;23.148;2023-05-07T05:28:01;93938.25;;;11.56;100.00
10606;BME280;5350;42.698;23.148;2023-05-07T05:30:28;93938.13;;;11.66;100.00
10606;BME280;5350;42.698;23.148;2023-05-07T05:32:54;93937.88;;;11.81;100.00
10606;BME280;5350;42.698;23.148;2023-05-07T05:35:21;93942.72;;;11.93;100.00
10606;BME280;5350;42.698;23.148;2023-05-07T05:37:48;93943.13;;;12.00;100.00
10606;BME280;5350;42.698;23.148;2023-05-07T05:40:16;93943.91;;;12.14;100.00
10606;BME280;5350;42.698;23.148;2023-05-07T05:42:43;93949.81;;;12.25;100.00
10606;BME280;5350;42.698;23.148;2023-05-07T05:45:10;93946.91;;;12.40;100.00
10606;BME280;5350;42.698;23.148;2023-05-07T05:47:37;93954.63;;;12.50;100.00
10606;BME280;5350;42.698;23.148;2023-05-07T05:50:05;93955.13;;;12.65;100.00
10606;BME280;5350;42.698;23.148;2023-05-07T05:52:32;93945.72;;;12.73;100.00
10606;BME280;5350;42.698;23.148;2023-05-07T05:54:59;93953.75;;;12.81;100.00
10606;BME280;5350;42.698;23.148;2023-05-07T05:57:27;93947.50;;;12.91;100.00
10606;BME280;5350;42.698;23.148;2023-05-07T05:59:54;93952.00;;;13.04;100.00
10606;BME280;5350;42.698;23.148;2023-05-07T06:02:20;93945.75;;;13.14;100.00
10606;BME280;5350;42.698;23.148;2023-05-07T06:04:47;93957.94;;;13.23;100.00
10606;BME280;5350;42.698;23.148;2023-05-07T06:07:14;93955.47;;;13.40;100.00
10606;BME280;5350;42.698;23.148;2023-05-07T06:09:40;93959.56;;;13.46;100.00
10606;BME280;5350;42.698;23.148;2023-05-07T06:12:07;93958.25;;;13.57;100.00
10606;BME280;5350;42.698;23.148;2023-05-07T06:14:35;93957.16;;;13.58;100.00
10606;BME280;5350;42.698;23.148;2023-05-07T06:17:02;93956.81;;;13.74;100.00
10606;BME280;5350;42.698;23.148;2023-05-07T06:19:29;93956.09;;;13.82;100.00
10606;BME280;5350;42.698;23.148;2023-05-07T06:21:56;93948.66;;;13.84;100.00
10606;BME280;5350;42.698;23.148;2023-05-07T06:24:23;93954.84;;;14.01;100.00
10606;BME280;5350;42.698;23.148;2023-05-07T06:26:50;93945.03;;;14.02;100.00
10606;BME280;5350;42.698;23.148;2023-05-07T06:29:17;93947.72;;;14.10;100.00
10606;BME280;5350;42.698;23.148;2023-05-07T06:31:45;93938.84;;;14.28;100.00
10606;BME280;5350;42.698;23.148;2023-05-07T06:34:11;93937.19;;;14.41;100.00
10606;BME280;5350;42.698;23.148;2023-05-07T06:36:40;93946.72;;;14.51;100.00
10606;BME280;5350;42.698;23.148;2023-05-07T06:39:07;93941.59;;;14.54;100.00
10606;BME280;5350;42.698;23.148;2023-05-07T06:41:33;93934.97;;;14.65;100.00
10606;BME280;5350;42.698;23.148;2023-05-07T06:44:01;93935.13;;;14.69;99.81
10606;BME280;5350;42.698;23.148;2023-05-07T06:46:28;93923.81;;;14.85;100.00
10606;BME280;5350;42.698;23.148;2023-05-07T06:48:56;93921.97;;;14.94;97.89
10606;BME280;5350;42.698;23.148;2023-05-07T06:51:23;93932.91;;;15.10;95.38
10606;BME280;5350;42.698;23.148;2023-05-07T06:53:50;93930.91;;;15.15;93.91
10606;BME280;5350;42.698;23.148;2023-05-07T06:56:16;93930.13;;;15.32;94.03
10606;BME280;5350;42.698;23.148;2023-05-07T06:58:43;93939.22;;;15.48;91.73
10606;BME280;5350;42.698;23.148;2023-05-07T07:01:10;93942.81;;;15.61;90.62
10606;BME280;5350;42.698;23.148;2023-05-07T07:03:36;93938.16;;;15.75;89.72
10606;BME280;5350;42.698;23.148;2023-05-07T07:06:05;93934.84;;;15.69;88.77
10606;BME280;5350;42.698;23.148;2023-05-07T07:08:31;93931.59;;;15.81;91.21
10606;BME280;5350;42.698;23.148;2023-05-07T07:11:00;93928.44;;;15.96;90.74
10606;BME280;5350;42.698;23.148;2023-05-07T07:13:26;93934.03;;;16.12;89.22
10606;BME280;5350;42.698;23.148;2023-05-07T07:15:54;93936.66;;;16.29;88.29
10606;BME280;5350;42.698;23.148;2023-05-07T07:18:20;93937.88;;;16.40;86.03
10606;BME280;5350;42.698;23.148;2023-05-07T07:20:47;93938.50;;;16.54;86.01
10606;BME280;5350;42.698;23.148;2023-05-07T07:23:15;93926.88;;;16.67;84.16
10606;BME280;5350;42.698;23.148;2023-05-07T07:25:42;93927.88;;;16.92;84.12
10606;BME280;5350;42.698;23.148;2023-05-07T07:28:09;93925.09;;;17.09;84.39
10606;BME280;5350;42.698;23.148;2023-05-07T07:30:36;93933.94;;;17.21;81.94
10606;BME280;5350;42.698;23.148;2023-05-07T07:33:03;93936.31;;;17.23;81.51
10606;BME280;5350;42.698;23.148;2023-05-07T07:35:30;93937.91;;;17.36;79.48
10606;BME280;5350;42.698;23.148;2023-05-07T07:37:57;93944.09;;;17.48;79.86
10606;BME280;5350;42.698;23.148;2023-05-07T07:40:25;93945.75;;;17.62;79.93
10606;BME280;5350;42.698;23.148;2023-05-07T07:42:52;93952.38;;;17.76;77.81
10606;BME280;5350;42.698;23.148;2023-05-07T07:45:19;93955.09;;;17.88;76.07
10606;BME280;5350;42.698;23.148;2023-05-07T07:47:46;93949.50;;;18.02;76.20
10606;BME280;5350;42.698;23.148;2023-05-07T07:50:13;93952.69;;;17.95;71.84
10606;BME280;5350;42.698;23.148;2023-05-07T07:52:40;93954.69;;;17.98;71.31
10606;BME280;5350;42.698;23.148;2023-05-07T07:55:08;93956.19;;;18.08;68.48
10606;BME280;5350;42.698;23.148;2023-05-07T07:57:36;93954.13;;;18.25;71.52
10606;BME280;5350;42.698;23.148;2023-05-07T08:00:04;93953.34;;;18.46;73.84
10606;BME280;5350;42.698;23.148;2023-05-07T08:02:32;93951.16;;;18.72;68.61
10606;BME280;5350;42.698;23.148;2023-05-07T08:04:59;93951.50;;;18.70;67.18
10606;BME280;5350;42.698;23.148;2023-05-07T08:07:25;93944.59;;;18.69;66.77
10606;BME280;5350;42.698;23.148;2023-05-07T08:09:52;93942.28;;;18.68;68.37
10606;BME280;5350;42.698;23.148;2023-05-07T08:12:19;93940.94;;;18.86;67.10
10606;BME280;5350;42.698;23.148;2023-05-07T08:14:47;93939.41;;;19.09;66.55
10606;BME280;5350;42.698;23.148;2023-05-07T08:17:13;93933.84;;;19.26;66.04
10606;BME280;5350;42.698;23.148;2023-05-07T08:19:41;93931.81;;;19.59;61.55
10606;BME280;5350;42.698;23.148;2023-05-07T08:22:07;93927.63;;;19.58;63.73
10606;BME280;5350;42.698;23.148;2023-05-07T08:24:34;93929.13;;;19.71;64.00
10606;BME280;5350;42.698;23.148;2023-05-07T08:27:01;93916.06;;;19.94;65.94
10606;BME280;5350;42.698;23.148;2023-05-07T08:29:27;93919.41;;;20.19;61.64
10606;BME280;5350;42.698;23.148;2023-05-07T08:31:55;93922.75;;;20.59;65.69
10606;BME280;5350;42.698;23.148;2023-05-07T08:34:22;93913.91;;;20.70;62.81
10606;BME280;5350;42.698;23.148;2023-05-07T08:36:49;93911.22;;;20.86;60.42
10606;BME280;5350;42.698;23.148;2023-05-07T08:39:16;93913.88;;;21.02;61.75
10606;BME280;5350;42.698;23.148;2023-05-07T08:41:44;93915.88;;;21.20;61.73
10606;BME280;5350;42.698;23.148;2023-05-07T08:44:13;93896.34;;;21.35;55.58
10606;BME280;5350;42.698;23.148;2023-05-07T08:46:41;93898.78;;;21.60;54.07
10606;BME280;5350;42.698;23.148;2023-05-07T08:49:10;93897.03;;;21.67;55.45
10606;BME280;5350;42.698;23.148;2023-05-07T08:51:37;93888.38;;;21.93;54.01
10606;BME280;5350;42.698;23.148;2023-05-07T08:54:04;93887.06;;;22.02;52.70
10606;BME280;5350;42.698;23.148;2023-05-07T08:56:32;93889.16;;;22.12;51.15
10606;BME280;5350;42.698;23.148;2023-05-07T08:58:59;93880.91;;;22.21;53.43
10606;BME280;5350;42.698;23.148;2023-05-07T09:01:26;93883.16;;;22.38;50.13
10606;BME280;5350;42.698;23.148;2023-05-07T09:03:53;93857.41;;;22.34;49.75
10606;BME280;5350;42.698;23.148;2023-05-07T09:06:21;93875.94;;;22.42;52.22
10606;BME280;5350;42.698;23.148;2023-05-07T09:08:52;93879.91;;;22.52;49.57
10606;BME280;5350;42.698;23.148;2023-05-07T09:11:22;93872.00;;;22.36;50.62
10606;BME280;5350;42.698;23.148;2023-05-07T09:13:53;93866.38;;;22.22;48.30
10606;BME280;5350;42.698;23.148;2023-05-07T09:16:21;93871.34;;;22.43;46.46
10606;BME280;5350;42.698;23.148;2023-05-07T09:18:50;93866.09;;;22.50;45.91
10606;BME280;5350;42.698;23.148;2023-05-07T09:21:18;93874.78;;;22.62;43.30
10606;BME280;5350;42.698;23.148;2023-05-07T09:23:47;93868.94;;;22.79;43.00
10606;BME280;5350;42.698;23.148;2023-05-07T09:26:14;93860.03;;;22.98;41.84
10606;BME280;5350;42.698;23.148;2023-05-07T09:28:41;93857.09;;;23.07;42.84
10606;BME280;5350;42.698;23.148;2023-05-07T09:31:09;93852.03;;;23.28;44.05
10606;BME280;5350;42.698;23.148;2023-05-07T09:33:36;93856.75;;;23.64;42.89
10606;BME280;5350;42.698;23.148;2023-05-07T09:36:03;93861.94;;;23.79;42.13
10606;BME280;5350;42.698;23.148;2023-05-07T09:38:30;93858.19;;;23.84;44.15
10606;BME280;5350;42.698;23.148;2023-05-07T09:41:09;93849.72;;;23.82;42.41
10606;BME280;5350;42.698;23.148;2023-05-07T09:43:37;93839.03;;;23.89;41.70
10606;BME280;5350;42.698;23.148;2023-05-07T09:46:07;93840.84;;;24.11;42.15
10606;BME280;5350;42.698;23.148;2023-05-07T09:48:37;93842.00;;;24.10;41.85
10606;BME280;5350;42.698;23.148;2023-05-07T09:51:11;93837.38;;;24.07;41.01
10606;BME280;5350;42.698;23.148;2023-05-07T09:53:38;93842.78;;;24.14;40.86
10606;BME280;5350;42.698;23.148;2023-05-07T09:56:07;93836.63;;;24.10;38.72
10606;BME280;5350;42.698;23.148;2023-05-07T09:58:36;93835.09;;;23.79;38.92
10606;BME280;5350;42.698;23.148;2023-05-07T10:01:04;93832.78;;;23.78;40.97
10606;BME280;5350;42.698;23.148;2023-05-07T10:03:33;93832.41;;;24.09;41.89
10606;BME280;5350;42.698;23.148;2023-05-07T10:06:01;93829.94;;;24.34;39.07
10606;BME280;5350;42.698;23.148;2023-05-07T10:08:30;93826.78;;;24.69;42.04
10606;BME280;5350;42.698;23.148;2023-05-07T10:10:57;93820.81;;;24.86;40.19
10606;BME280;5350;42.698;23.148;2023-05-07T10:13:25;93819.81;;;25.08;38.59
10606;BME280;5350;42.698;23.148;2023-05-07T10:15:52;93825.97;;;25.12;35.69
10606;BME280;5350;42.698;23.148;2023-05-07T10:18:20;93824.06;;;25.12;35.42
10606;BME280;5350;42.698;23.148;2023-05-07T10:20:49;93815.72;;;25.28;37.81
10606;BME280;5350;42.698;23.148;2023-05-07T10:23:23;93811.22;;;25.46;36.64
10606;BME280;5350;42.698;23.148;2023-05-07T10:25:50;93809.75;;;25.59;34.96
10606;BME280;5350;42.698;23.148;2023-05-07T10:28:17;93808.25;;;25.65;34.72
10606;BME280;5350;42.698;23.148;2023-05-07T10:30:57;93806.72;;;25.71;37.48
10606;BME280;5350;42.698;23.148;2023-05-07T10:33:27;93798.25;;;25.69;34.48
10606;BME280;5350;42.698;23.148;2023-05-07T10:35:58;93809.84;;;25.80;36.09
10606;BME280;5350;42.698;23.148;2023-05-07T10:38:26;93797.16;;;25.84;33.85
10606;BME280;5350;42.698;23.148;2023-05-07T10:40:53;93795.59;;;25.76;35.80
10606;BME280;5350;42.698;23.148;2023-05-07T10:43:20;93793.72;;;25.94;32.42
10606;BME280;5350;42.698;23.148;2023-05-07T10:46:13;93794.78;;;25.65;32.51
10606;BME280;5350;42.698;23.148;2023-05-07T10:49:10;93791.25;;;25.54;34.65
10606;BME280;5350;42.698;23.148;2023-05-07T10:51:38;93789.34;;;25.58;33.87
10606;BME280;5350;42.698;23.148;2023-05-07T10:54:23;93784.22;;;25.39;32.64
10606;BME280;5350;42.698;23.148;2023-05-07T10:56:50;93779.94;;;25.27;33.02
10606;BME280;5350;42.698;23.148;2023-05-07T10:59:36;93763.38;;;25.22;35.22
10606;BME280;5350;42.698;23.148;2023-05-07T11:02:13;93782.88;;;25.70;33.78
10606;BME280;5350;42.698;23.148;2023-05-07T11:04:40;93776.03;;;25.97;33.32
10606;BME280;5350;42.698;23.148;2023-05-07T11:07:26;93785.38;;;26.38;31.92
10606;BME280;5350;42.698;23.148;2023-05-07T11:09:55;93782.69;;;26.49;33.55
10606;BME280;5350;42.698;23.148;2023-05-07T11:12:53;93776.53;;;26.73;32.44
10606;BME280;5350;42.698;23.148;2023-05-07T11:15:34;93780.78;;;26.77;31.79
10606;BME280;5350;42.698;23.148;2023-05-07T11:18:03;93776.13;;;26.99;30.84
10606;BME280;5350;42.698;23.148;2023-05-07T11:21:00;93772.22;;;27.21;34.02
10606;BME280;5350;42.698;23.148;2023-05-07T11:23:54;93767.97;;;27.34;31.03
10606;BME280;5350;42.698;23.148;2023-05-07T11:26:21;93769.09;;;27.33;30.98
10606;BME280;5350;42.698;23.148;2023-05-07T11:28:48;93772.22;;;27.39;30.07
10606;BME280;5350;42.698;23.148;2023-05-07T11:31:20;93767.44;;;27.78;28.82
10606;BME280;5350;42.698;23.148;2023-05-07T11:33:49;93764.50;;;27.37;28.61
10606;BME280;5350;42.698;23.148;2023-05-07T11:36:17;93762.94;;;27.40;29.33
10606;BME280;5350;42.698;23.148;2023-05-07T11:38:44;93759.09;;;27.30;28.78
10606;BME280;5350;42.698;23.148;2023-05-07T11:41:11;93758.97;;;27.69;30.93
10606;BME280;5350;42.698;23.148;2023-05-07T11:43:37;93758.09;;;27.97;28.89
10606;BME280;5350;42.698;23.148;2023-05-07T11:46:06;93753.59;;;27.65;28.50
10606;BME280;5350;42.698;23.148;2023-05-07T11:48:34;93753.66;;;27.48;28.56
10606;BME280;5350;42.698;23.148;2023-05-07T11:51:04;93734.69;;;27.65;28.40
10606;BME280;5350;42.698;23.148;2023-05-07T11:53:38;93749.72;;;27.70;30.14
10606;BME280;5350;42.698;23.148;2023-05-07T11:56:06;93741.88;;;27.90;29.41
10606;BME280;5350;42.698;23.148;2023-05-07T11:58:34;93752.88;;;28.30;28.85
10606;BME280;5350;42.698;23.148;2023-05-07T12:01:00;93744.69;;;28.37;28.38
10606;BME280;5350;42.698;23.148;2023-05-07T12:03:27;93743.53;;;28.38;28.56
10606;BME280;5350;42.698;23.148;2023-05-07T12:05:54;93739.94;;;28.56;28.50
10606;BME280;5350;42.698;23.148;2023-05-07T12:08:22;93738.38;;;28.58;28.59
10606;BME280;5350;42.698;23.148;2023-05-07T12:10:50;93730.94;;;28.69;28.04
10606;BME280;5350;42.698;23.148;2023-05-07T12:13:16;93733.97;;;28.78;26.74
10606;BME280;5350;42.698;23.148;2023-05-07T12:15:43;93731.13;;;28.92;27.47
10606;BME280;5350;42.698;23.148;2023-05-07T12:18:11;93728.31;;;29.40;28.42
10606;BME280;5350;42.698;23.148;2023-05-07T12:20:38;93718.25;;;29.74;27.48
10606;BME280;5350;42.698;23.148;2023-05-07T12:23:05;93719.28;;;29.84;26.40
10606;BME280;5350;42.698;23.148;2023-05-07T12:25:34;93718.53;;;30.10;25.50
10606;BME280;5350;42.698;23.148;2023-05-07T12:28:01;93716.13;;;29.89;26.17
10606;BME280;5350;42.698;23.148;2023-05-07T12:30:29;93717.50;;;30.31;25.68
10606;BME280;5350;42.698;23.148;2023-05-07T12:32:55;93709.84;;;30.22;25.20
10606;BME280;5350;42.698;23.148;2023-05-07T12:35:28;93711.44;;;30.69;28.37
10606;BME280;5350;42.698;23.148;2023-05-07T12:37:55;93694.72;;;30.94;25.39
10606;BME280;5350;42.698;23.148;2023-05-07T12:40:24;93704.75;;;30.74;24.83
10606;BME280;5350;42.698;23.148;2023-05-07T12:42:53;93701.34;;;30.47;25.62
10606;BME280;5350;42.698;23.148;2023-05-07T12:45:21;93696.69;;;30.47;24.91
10606;BME280;5350;42.698;23.148;2023-05-07T12:47:48;93684.63;;;30.95;25.84
10606;BME280;5350;42.698;23.148;2023-05-07T12:50:15;93687.38;;;31.14;24.79
10606;BME280;5350;42.698;23.148;2023-05-07T12:52:43;93679.66;;;30.90;24.61
10606;BME280;5350;42.698;23.148;2023-05-07T12:55:12;93686.63;;;30.44;24.87
10606;BME280;5350;42.698;23.148;2023-05-07T12:57:40;93684.91;;;30.04;25.11
10606;BME280;5350;42.698;23.148;2023-05-07T13:00:10;93677.56;;;30.28;25.71
10606;BME280;5350;42.698;23.148;2023-05-07T13:02:38;93681.97;;;30.45;25.09